Time,TemperatureF,DewpointF,PressureIn,WindDirection,WindDirectionDegrees,WindSpeedMPH,WindSpeedGustMPH,Humidity,HourlyPrecipIn,Conditions,Clouds,dailyrainin,SolarRadiationWatts/m^2,SoftwareType,DateUTC
2013-04-10 00:13:00,35.0,35.0,-100.00,NNE,14,6.0,11.0,100,0.00,,,0.45,1.000000,,2013-04-10 04:13:00,
2013-04-10 00:23:00,35.0,35.0,-100.00,NNE,14,6.0,11.0,100,0.00,,,0.45,1.000000,,2013-04-10 04:23:00,
2013-04-10 00:33:00,35.0,35.0,-100.00,NNE,14,6.0,11.0,100,0.00,,,0.45,1.000000,,2013-04-10 04:33:00,
2013-04-10 00:43:00,35.0,35.0,-100.00,NNE,14,6.0,11.0,100,0.00,,,0.45,1.000000,,2013-04-10 04:43:00,
2013-04-10 01:13:00,35.0,35.0,-100.00,North,4,5.0,14.0,100,0.00,,,0.45,1.000000,,2013-04-10 05:13:00,
2013-04-10 01:23:00,35.0,35.0,-100.00,North,4,5.0,14.0,100,0.00,,,0.45,1.000000,,2013-04-10 05:23:00,
2013-04-10 01:33:00,35.0,35.0,-100.00,North,4,5.0,14.0,100,0.00,,,0.45,1.000000,,2013-04-10 05:33:00,
2013-04-10 01:42:00,35.0,35.0,-100.00,North,4,5.0,14.0,100,0.00,,,0.45,1.000000,,2013-04-10 05:42:00,
2013-04-10 02:12:00,34.0,34.0,-100.00,North,6,5.0,10.0,100,0.00,,,0.45,1.000000,,2013-04-10 06:12:00,
2013-04-10 02:22:00,34.0,34.0,-100.00,North,6,5.0,10.0,100,0.00,,,0.45,1.000000,,2013-04-10 06:22:00,
2013-04-10 02:32:00,34.0,34.0,-100.00,North,6,5.0,10.0,100,0.00,,,0.45,1.000000,,2013-04-10 06:32:00,
2013-04-10 02:42:00,34.0,34.0,-100.00,North,6,5.0,10.0,100,0.00,,,0.45,1.000000,,2013-04-10 06:42:00,
2013-04-10 03:12:00,34.0,34.0,-100.00,North,3,4.0,9.0,100,0.00,,,0.45,1.000000,,2013-04-10 07:12:00,
2013-04-10 03:22:00,34.0,34.0,-100.00,North,3,4.0,9.0,100,0.00,,,0.45,1.000000,,2013-04-10 07:22:00,
2013-04-10 03:32:00,34.0,34.0,-100.00,North,3,4.0,9.0,100,0.00,,,0.45,1.000000,,2013-04-10 07:32:00,
2013-04-10 03:42:00,34.0,34.0,-100.00,North,3,4.0,9.0,100,0.00,,,0.45,1.000000,,2013-04-10 07:42:00,
2013-04-10 04:12:00,34.0,34.0,-100.00,North,7,3.0,9.0,100,0.00,,,0.45,1.000000,,2013-04-10 08:12:00,
2013-04-10 04:22:00,34.0,34.0,-100.00,North,7,3.0,9.0,100,0.00,,,0.45,1.000000,,2013-04-10 08:22:00,
2013-04-10 04:32:00,34.0,34.0,-100.00,North,7,3.0,9.0,100,0.00,,,0.45,1.000000,,2013-04-10 08:32:00,
2013-04-10 04:42:00,34.0,34.0,-100.00,North,7,3.0,9.0,100,0.00,,,0.45,1.000000,,2013-04-10 08:42:00,
2013-04-10 05:12:00,34.0,34.0,-100.00,NNW,328,6.0,9.0,100,0.00,,,0.45,1.000000,,2013-04-10 09:12:00,
2013-04-10 05:22:00,34.0,34.0,-100.00,NNW,328,6.0,9.0,100,0.00,,,0.45,1.000000,,2013-04-10 09:22:00,
2013-04-10 05:32:00,34.0,34.0,-100.00,NNW,328,6.0,9.0,100,0.00,,,0.45,1.000000,,2013-04-10 09:32:00,
2013-04-10 05:43:00,34.0,34.0,-100.00,NNW,328,6.0,9.0,100,0.00,,,0.45,1.000000,,2013-04-10 09:43:00,
2013-04-10 06:13:00,33.0,33.0,-100.00,NNE,27,4.0,9.0,100,0.09,,,0.54,1.000000,,2013-04-10 10:13:00,
2013-04-10 06:23:00,33.0,33.0,-100.00,NNE,27,4.0,9.0,100,0.09,,,0.54,1.000000,,2013-04-10 10:23:00,
2013-04-10 06:33:00,33.0,33.0,-100.00,NNE,27,4.0,9.0,100,0.09,,,0.54,1.000000,,2013-04-10 10:33:00,
2013-04-10 06:43:00,33.0,33.0,-100.00,NNE,27,4.0,9.0,100,0.09,,,0.54,1.000000,,2013-04-10 10:43:00,
2013-04-10 07:12:00,33.0,33.0,-100.00,ENE,57,5.0,10.0,100,0.01,,,0.55,1.000000,,2013-04-10 11:12:00,
2013-04-10 07:22:00,33.0,33.0,-100.00,ENE,57,5.0,10.0,100,0.01,,,0.55,1.000000,,2013-04-10 11:22:00,
2013-04-10 07:32:00,33.0,33.0,-100.00,ENE,57,5.0,10.0,100,0.01,,,0.55,1.000000,,2013-04-10 11:32:00,
2013-04-10 07:42:00,33.0,33.0,-100.00,ENE,57,5.0,10.0,100,0.01,,,0.55,1.000000,,2013-04-10 11:42:00,
2013-04-10 10:12:00,33.0,33.0,-100.00,ENE,73,9.0,16.0,100,-99.99,,,0.73,22.000000,,2013-04-10 14:12:00,
2013-04-10 10:22:00,33.0,33.0,-100.00,ENE,73,9.0,16.0,100,-99.99,,,0.73,22.000000,,2013-04-10 14:22:00,
2013-04-10 10:33:00,33.0,33.0,-100.00,ENE,73,9.0,16.0,100,-99.99,,,0.73,22.000000,,2013-04-10 14:33:00,
2013-04-10 10:42:00,33.0,33.0,-100.00,ENE,73,9.0,16.0,100,-99.99,,,0.73,22.000000,,2013-04-10 14:42:00,
2013-04-10 11:12:00,33.0,33.0,-100.00,NE,45,5.0,14.0,99,0.07,,,0.80,48.000000,,2013-04-10 15:12:00,
2013-04-10 11:23:00,33.0,33.0,-100.00,NE,45,5.0,14.0,99,0.07,,,0.80,48.000000,,2013-04-10 15:23:00,
2013-04-10 11:33:00,33.0,33.0,-100.00,NE,45,5.0,14.0,99,0.07,,,0.80,48.000000,,2013-04-10 15:33:00,
2013-04-10 11:42:00,33.0,33.0,-100.00,NE,45,5.0,14.0,99,0.07,,,0.80,48.000000,,2013-04-10 15:42:00,
2013-04-10 12:13:00,36.0,34.0,-100.00,ENE,59,8.0,15.0,91,0.16,,,0.96,308.000000,,2013-04-10 16:13:00,
2013-04-10 12:23:00,36.0,34.0,-100.00,ENE,59,8.0,15.0,91,0.16,,,0.96,308.000000,,2013-04-10 16:23:00,
2013-04-10 12:33:00,36.0,34.0,-100.00,ENE,59,8.0,15.0,91,0.16,,,0.96,308.000000,,2013-04-10 16:33:00,
2013-04-10 12:43:00,36.0,34.0,-100.00,ENE,59,8.0,15.0,91,0.16,,,0.96,308.000000,,2013-04-10 16:43:00,
2013-04-10 13:13:00,34.0,32.0,-100.00,ENE,77,8.0,17.0,94,0.09,,,1.05,147.000000,,2013-04-10 17:13:00,
2013-04-10 13:22:00,34.0,32.0,-100.00,ENE,77,8.0,17.0,94,0.09,,,1.05,147.000000,,2013-04-10 17:22:00,
2013-04-10 13:33:00,34.0,32.0,-100.00,ENE,77,8.0,17.0,94,0.09,,,1.05,147.000000,,2013-04-10 17:33:00,
2013-04-10 13:43:00,34.0,32.0,-100.00,ENE,77,8.0,17.0,94,0.09,,,1.05,147.000000,,2013-04-10 17:43:00,
2013-04-10 14:12:00,34.0,32.0,-100.00,ENE,57,7.0,16.0,94,0.04,,,1.09,140.000000,,2013-04-10 18:12:00,
2013-04-10 14:23:00,34.0,32.0,-100.00,ENE,57,7.0,16.0,94,0.04,,,1.09,140.000000,,2013-04-10 18:23:00,
2013-04-10 14:33:00,34.0,32.0,-100.00,ENE,57,7.0,16.0,94,0.04,,,1.09,140.000000,,2013-04-10 18:33:00,
2013-04-10 14:43:00,34.0,32.0,-100.00,ENE,57,7.0,16.0,94,0.04,,,1.09,140.000000,,2013-04-10 18:43:00,
2013-04-10 15:13:00,35.0,32.0,-100.00,ENE,58,7.0,17.0,88,0.05,,,1.13,104.000000,,2013-04-10 19:13:00,
2013-04-10 15:22:00,35.0,32.0,-100.00,ENE,58,7.0,17.0,88,0.05,,,1.13,104.000000,,2013-04-10 19:22:00,
2013-04-10 15:33:00,35.0,32.0,-100.00,ENE,58,7.0,17.0,88,0.05,,,1.13,104.000000,,2013-04-10 19:33:00,
2013-04-10 15:42:00,35.0,32.0,-100.00,ENE,58,7.0,17.0,88,0.05,,,1.13,104.000000,,2013-04-10 19:42:00,
2013-04-10 16:12:00,38.0,31.0,-100.00,ENE,68,8.0,15.0,77,0.07,,,1.19,313.000000,,2013-04-10 20:12:00,
2013-04-10 16:23:00,38.0,31.0,-100.00,ENE,68,8.0,15.0,77,0.07,,,1.19,313.000000,,2013-04-10 20:23:00,
2013-04-10 16:33:00,38.0,31.0,-100.00,ENE,68,8.0,15.0,77,0.07,,,1.19,313.000000,,2013-04-10 20:33:00,
2013-04-10 16:42:00,38.0,31.0,-100.00,ENE,68,8.0,15.0,77,0.07,,,1.19,313.000000,,2013-04-10 20:42:00,
2013-04-10 17:13:00,39.0,31.0,-100.00,NE,42,8.0,16.0,72,0.07,,,1.26,419.000000,,2013-04-10 21:13:00,
2013-04-10 17:22:00,39.0,31.0,-100.00,NE,42,8.0,16.0,72,0.07,,,1.26,419.000000,,2013-04-10 21:22:00,
2013-04-10 17:33:00,39.0,31.0,-100.00,NE,42,8.0,16.0,72,0.07,,,1.26,419.000000,,2013-04-10 21:33:00,
2013-04-10 17:43:00,39.0,31.0,-100.00,NE,42,8.0,16.0,72,0.07,,,1.26,419.000000,,2013-04-10 21:43:00,
2013-04-10 18:13:00,37.0,30.0,-100.00,ENE,57,6.0,17.0,75,0.01,,,1.10,255.000000,,2013-04-10 22:13:00,
2013-04-10 18:23:00,37.0,30.0,-100.00,ENE,57,6.0,17.0,75,0.01,,,1.10,255.000000,,2013-04-10 22:23:00,
2013-04-10 18:34:00,37.0,30.0,-100.00,ENE,57,6.0,17.0,75,0.01,,,1.10,255.000000,,2013-04-10 22:34:00,
2013-04-10 18:42:00,37.0,30.0,-100.00,ENE,57,6.0,17.0,75,0.01,,,1.10,255.000000,,2013-04-10 22:42:00,
2013-04-10 19:12:00,38.0,30.0,-100.00,NE,40,4.0,12.0,73,0.00,,,0.97,163.000000,,2013-04-10 23:12:00,
2013-04-10 19:23:00,38.0,30.0,-100.00,NE,40,4.0,12.0,73,0.00,,,0.97,163.000000,,2013-04-10 23:23:00,
2013-04-10 19:33:00,38.0,30.0,-100.00,NE,40,4.0,12.0,73,0.00,,,0.97,163.000000,,2013-04-10 23:33:00,
2013-04-10 19:43:00,38.0,30.0,-100.00,NE,40,4.0,12.0,73,0.00,,,0.97,163.000000,,2013-04-10 23:43:00,
2013-04-10 20:13:00,37.0,30.0,-100.00,NE,35,3.0,9.0,76,0.00,,,-99.99,41.000000,,2013-04-11 00:13:00,
2013-04-10 20:23:00,37.0,30.0,-100.00,NE,35,3.0,9.0,76,0.00,,,-99.99,41.000000,,2013-04-11 00:23:00,
2013-04-10 20:32:00,37.0,30.0,-100.00,NE,35,3.0,9.0,76,0.00,,,-99.99,41.000000,,2013-04-11 00:32:00,
2013-04-10 20:42:00,37.0,30.0,-100.00,NE,35,3.0,9.0,76,0.00,,,-99.99,41.000000,,2013-04-11 00:42:00,
2013-04-10 21:12:00,35.0,29.0,-100.00,NNE,20,3.0,7.0,80,0.00,,,0.85,4.000000,,2013-04-11 01:12:00,
2013-04-10 21:22:00,35.0,29.0,-100.00,NNE,20,3.0,7.0,80,0.00,,,0.85,4.000000,,2013-04-11 01:22:00,
2013-04-10 21:32:00,35.0,29.0,-100.00,NNE,20,3.0,7.0,80,0.00,,,0.85,4.000000,,2013-04-11 01:32:00,
2013-04-10 21:42:00,35.0,29.0,-100.00,NNE,20,3.0,7.0,80,0.00,,,0.85,4.000000,,2013-04-11 01:42:00,
2013-04-10 22:12:00,35.0,30.0,-100.00,NNE,32,3.0,5.0,81,0.00,,,0.85,1.000000,,2013-04-11 02:12:00,
2013-04-10 22:22:00,35.0,30.0,-100.00,NNE,32,3.0,5.0,81,0.00,,,0.85,1.000000,,2013-04-11 02:22:00,
2013-04-10 22:32:00,35.0,30.0,-100.00,NNE,32,3.0,5.0,81,0.00,,,0.85,1.000000,,2013-04-11 02:32:00,
2013-04-10 22:42:00,35.0,30.0,-100.00,NNE,32,3.0,5.0,81,0.00,,,0.85,1.000000,,2013-04-11 02:42:00,
2013-04-10 23:02:00,35.0,29.0,-100.00,ENE,58,3.0,8.0,78,0.00,,,0.84,1.000000,,2013-04-11 03:02:00,
2013-04-10 23:12:00,35.0,29.0,-100.00,ENE,58,3.0,8.0,78,0.00,,,0.84,1.000000,,2013-04-11 03:12:00,
2013-04-10 23:22:00,35.0,29.0,-100.00,ENE,58,3.0,8.0,78,0.00,,,0.84,1.000000,,2013-04-11 03:22:00,
2013-04-10 23:33:00,35.0,29.0,-100.00,ENE,58,3.0,8.0,78,0.00,,,0.84,1.000000,,2013-04-11 03:33:00,
2013-04-10 23:43:00,35.0,29.0,-100.00,ENE,58,3.0,8.0,78,0.00,,,0.84,1.000000,,2013-04-11 03:43:00,